Time;durP1;ratioP1;P1;durP2;ratioP2;P2;SDS_P1;SDS_P2;PMS_P1;PMS_P2;Temp;Humidity;BMP_temperature;BMP_pressure;BME280_temperature;BME280_humidity;BME280_pressure;Samples;Min_cycle;Max_cycle;Signal;HPM_P1;HPM_P2
2022/11/04 00:01:58;;;;;;;1.38;1.00;;;10.90;99.90;;;;;;6089433;23;20637;-75
2022/11/04 00:04:30;;;;;;;1.30;1.10;;;10.90;99.90;;;;;;6086431;23;20203;-75
2022/11/04 00:06:58;;;;;;;0.98;0.93;;;10.90;99.90;;;;;;6089897;23;20195;-75
2022/11/04 00:09:28;;;;;;;1.42;1.10;;;10.90;99.90;;;;;;6089952;23;20196;-75
2022/11/04 00:14:45;;;;;;;1.83;1.08;;;10.90;99.90;;;;;;6064295;23;20736;-75
2022/11/04 00:17:22;;;;;;;1.75;1.40;;;10.90;99.90;;;;;;6088652;23;20342;-75
2022/11/04 00:33:24;;;;;;;1.35;1.10;;;10.90;99.90;;;;;;6080162;23;20185;-75
2022/11/04 00:33:43;;;;;;;1.45;1.33;;;10.90;99.90;;;;;;6063012;23;20279;-75
2022/11/04 00:36:13;;;;;;;1.25;1.15;;;11.00;99.90;;;;;;6088632;23;20219;-75
2022/11/04 00:38:40;;;;;;;1.58;1.42;;;11.00;99.90;;;;;;6083117;23;20275;-75
2022/11/04 00:41:24;;;;;;;1.17;1.08;;;11.00;99.90;;;;;;6085024;23;20196;-75
2022/11/04 00:43:52;;;;;;;1.35;1.25;;;11.00;99.90;;;;;;6089685;23;20231;-75
2022/11/04 00:46:19;;;;;;;1.85;1.30;;;11.10;99.90;;;;;;6088075;23;20187;-75
2022/11/04 00:48:47;;;;;;;2.60;1.27;;;11.20;99.90;;;;;;6087698;23;20246;-76
2022/11/04 00:51:16;;;;;;;1.30;1.20;;;11.10;99.90;;;;;;6069072;23;20211;-75
2022/11/04 00:53:43;;;;;;;1.40;1.15;;;11.10;99.90;;;;;;6076617;23;20200;-75
2022/11/04 00:56:11;;;;;;;1.45;1.23;;;11.20;99.90;;;;;;6082891;23;20291;-75
2022/11/04 00:58:38;;;;;;;1.30;1.20;;;11.20;99.90;;;;;;6088288;23;20557;-75
2022/11/04 01:01:09;;;;;;;1.83;1.50;;;11.20;99.90;;;;;;6090796;23;20253;-75
2022/11/04 01:03:36;;;;;;;1.20;1.10;;;11.10;99.90;;;;;;6088767;23;20202;-75
2022/11/04 01:06:04;;;;;;;1.50;1.40;;;11.10;99.90;;;;;;6089606;23;20787;-75
2022/11/04 01:08:33;;;;;;;1.15;1.00;;;11.10;99.90;;;;;;6074139;23;20223;-75
2022/11/04 01:11:01;;;;;;;1.90;1.30;;;11.10;99.90;;;;;;6080492;23;20196;-75
2022/11/04 01:13:29;;;;;;;1.92;1.50;;;11.00;99.90;;;;;;6084014;23;20230;-75
2022/11/04 01:15:58;;;;;;;1.50;1.40;;;11.00;99.90;;;;;;6087268;23;20199;-75
2022/11/04 01:18:25;;;;;;;1.85;1.35;;;11.00;99.90;;;;;;6083206;23;20607;-75
2022/11/04 01:20:52;;;;;;;1.65;1.25;;;11.00;99.90;;;;;;6074298;23;20260;-75
2022/11/04 01:23:20;;;;;;;1.10;0.90;;;11.00;99.90;;;;;;6081134;23;20192;-75
2022/11/04 01:25:50;;;;;;;0.98;0.90;;;11.00;99.90;;;;;;6079742;23;20208;-75
2022/11/04 01:28:17;;;;;;;1.02;0.90;;;11.00;99.90;;;;;;6084728;23;20275;-75
2022/11/04 01:30:44;;;;;;;1.67;1.05;;;11.00;99.90;;;;;;6074594;23;20228;-74
2022/11/04 01:33:11;;;;;;;1.10;1.00;;;10.90;99.90;;;;;;6089280;23;20278;-75
2022/11/04 01:35:39;;;;;;;1.08;1.00;;;10.90;99.90;;;;;;6078339;23;20208;-76
2022/11/04 01:38:06;;;;;;;1.00;0.90;;;10.90;99.90;;;;;;6089221;23;20188;-75
2022/11/04 01:40:36;;;;;;;1.20;1.10;;;10.90;99.90;;;;;;6090660;23;20693;-75
2022/11/04 01:43:12;;;;;;;1.08;0.98;;;10.90;99.90;;;;;;6090319;23;20188;-75
2022/11/04 01:45:39;;;;;;;1.20;1.10;;;10.80;99.90;;;;;;6080524;23;20192;-75
2022/11/04 01:48:13;;;;;;;1.08;0.90;;;10.80;99.90;;;;;;6087627;23;20191;-75
2022/11/04 01:50:40;;;;;;;0.88;0.80;;;10.80;99.90;;;;;;6081799;23;20646;-75
2022/11/04 01:53:13;;;;;;;1.10;0.98;;;10.70;99.90;;;;;;6086741;23;20215;-75
2022/11/04 01:55:45;;;;;;;1.02;0.85;;;10.70;99.90;;;;;;6087838;23;20229;-75
2022/11/04 01:58:18;;;;;;;1.05;0.95;;;10.70;99.90;;;;;;6080433;23;20274;-75
2022/11/04 02:00:46;;;;;;;1.17;1.08;;;10.70;99.90;;;;;;6068854;23;20247;-75
2022/11/04 02:03:18;;;;;;;1.25;0.82;;;10.70;99.90;;;;;;6091273;23;20198;-75
2022/11/04 02:05:46;;;;;;;1.20;1.10;;;10.70;99.90;;;;;;6081051;23;20188;-75
2022/11/04 02:08:15;;;;;;;1.10;1.10;;;10.70;99.90;;;;;;6090532;23;20192;-75
2022/11/04 02:10:48;;;;;;;1.20;1.10;;;10.70;99.90;;;;;;6087651;23;20203;-75
2022/11/04 02:13:17;;;;;;;1.50;0.98;;;10.70;99.90;;;;;;6090880;23;20617;-75
2022/11/04 02:15:51;;;;;;;1.30;1.08;;;10.60;99.90;;;;;;6086231;23;20196;-75
2022/11/04 02:18:38;;;;;;;2.97;1.08;;;10.60;99.90;;;;;;6062582;23;20196;-75
2022/11/04 02:21:52;;;;;;;1.10;1.00;;;10.60;99.90;;;;;;6071397;23;20215;-75
2022/11/04 02:25:04;;;;;;;2.40;0.90;;;10.60;99.90;;;;;;6000802;23;20194;-75
2022/11/04 02:27:41;;;;;;;1.38;1.23;;;10.60;99.90;;;;;;5912530;24;20228;-75
2022/11/04 02:30:14;;;;;;;1.42;1.00;;;10.50;99.90;;;;;;6078037;23;20192;-75
2022/11/04 02:33:06;;;;;;;1.35;1.02;;;10.50;99.90;;;;;;6089932;23;20192;-75
2022/11/04 02:35:41;;;;;;;1.30;0.95;;;10.40;99.90;;;;;;6081136;23;20279;-75
2022/11/04 02:38:17;;;;;;;1.10;0.90;;;10.40;99.90;;;;;;6082454;23;20267;-75
2022/11/04 02:40:52;;;;;;;1.55;1.10;;;10.40;99.90;;;;;;6084127;23;20298;-75
2022/11/04 02:43:25;;;;;;;1.20;1.10;;;10.40;99.90;;;;;;6087467;23;20192;-75
2022/11/04 02:46:03;;;;;;;1.10;1.00;;;10.40;99.90;;;;;;6088636;23;20203;-74
2022/11/04 02:48:36;;;;;;;1.00;0.90;;;10.40;99.90;;;;;;6085882;23;20271;-75
2022/11/04 02:51:10;;;;;;;2.25;1.10;;;10.40;99.90;;;;;;6082214;23;20598;-75
2022/11/04 02:53:41;;;;;;;3.05;1.05;;;10.40;99.90;;;;;;6082776;23;20196;-75
2022/11/04 02:56:11;;;;;;;2.08;1.05;;;10.40;99.90;;;;;;6074791;23;20279;-75
2022/11/04 02:58:43;;;;;;;1.35;0.90;;;10.40;99.90;;;;;;6073134;23;20226;-75
2022/11/04 03:01:16;;;;;;;2.30;0.80;;;10.40;99.90;;;;;;6074401;23;20647;-75
2022/11/04 03:03:48;;;;;;;1.02;0.80;;;10.30;99.90;;;;;;6089314;23;20206;-75
2022/11/04 03:06:20;;;;;;;1.90;1.10;;;10.30;99.90;;;;;;6088336;23;20267;-75
2022/11/04 03:08:50;;;;;;;1.60;0.82;;;10.30;99.90;;;;;;6072389;23;20203;-75
2022/11/04 03:11:22;;;;;;;2.25;0.90;;;10.30;99.90;;;;;;6079163;23;20188;-75
2022/11/04 03:13:52;;;;;;;2.85;1.00;;;10.20;99.90;;;;;;6076635;23;20215;-75
2022/11/04 03:16:24;;;;;;;1.85;0.90;;;10.20;99.90;;;;;;6073314;23;20279;-75
2022/11/04 03:19:01;;;;;;;1.60;1.08;;;10.20;99.90;;;;;;6082820;23;20218;-75
2022/11/04 03:21:33;;;;;;;4.45;0.80;;;10.20;99.90;;;;;;6082756;23;20220;-75
2022/11/04 03:24:01;;;;;;;1.35;0.80;;;10.20;99.90;;;;;;6087108;23;20242;-75
2022/11/04 03:26:33;;;;;;;2.15;1.50;;;10.20;99.90;;;;;;6090340;23;20199;-75
2022/11/04 03:29:12;;;;;;;3.75;1.20;;;10.20;99.90;;;;;;6089708;23;20199;-74
2022/11/04 03:31:45;;;;;;;1.08;0.88;;;10.30;99.90;;;;;;6090725;23;20266;-75
2022/11/04 03:34:12;;;;;;;2.45;1.25;;;10.20;99.90;;;;;;6076602;23;20527;-75
2022/11/04 03:36:40;;;;;;;1.40;1.10;;;10.30;99.90;;;;;;6084761;23;20191;-75
2022/11/04 03:39:08;;;;;;;1.92;0.95;;;10.20;99.90;;;;;;6075919;23;20192;-75
2022/11/04 03:41:40;;;;;;;1.10;1.00;;;10.20;99.90;;;;;;6063522;23;20216;-75
2022/11/04 03:44:08;;;;;;;1.27;0.90;;;10.20;99.90;;;;;;6090244;23;20282;-75
2022/11/04 03:46:35;;;;;;;1.85;1.30;;;10.20;99.90;;;;;;6084931;23;20610;-75
2022/11/04 03:49:05;;;;;;;1.65;1.00;;;10.20;99.90;;;;;;6080121;23;20226;-75
2022/11/04 03:51:32;;;;;;;1.85;1.10;;;10.20;99.90;;;;;;6089738;23;20262;-75
2022/11/04 03:54:00;;;;;;;1.80;1.05;;;10.20;99.90;;;;;;6090551;23;20215;-75
2022/11/04 03:56:47;;;;;;;2.30;1.00;;;10.20;99.90;;;;;;6080931;23;20209;-75
2022/11/04 03:59:33;;;;;;;2.40;1.20;;;10.20;99.90;;;;;;6070825;23;20730;-75
2022/11/04 04:02:09;;;;;;;2.25;1.00;;;10.20;99.90;;;;;;6090994;23;20224;-75
2022/11/04 04:04:44;;;;;;;1.60;1.00;;;10.10;99.90;;;;;;6085969;23;20273;-75
2022/11/04 04:07:16;;;;;;;1.10;0.80;;;10.10;99.90;;;;;;6079810;23;20205;-75
2022/11/04 04:09:46;;;;;;;1.27;1.10;;;10.10;99.90;;;;;;6090155;23;20291;-74
2022/11/04 04:12:17;;;;;;;1.85;1.00;;;10.10;99.90;;;;;;6089207;23;20566;-75
2022/11/04 04:14:50;;;;;;;1.88;1.00;;;10.10;99.90;;;;;;6075453;23;20279;-75
2022/11/04 04:17:23;;;;;;;2.30;1.10;;;10.10;99.90;;;;;;6079273;23;20249;-75
2022/11/04 04:19:57;;;;;;;1.38;1.27;;;10.10;99.90;;;;;;6082416;23;20292;-75
2022/11/04 04:22:27;;;;;;;1.30;1.10;;;10.10;99.90;;;;;;6080924;23;20200;-75
2022/11/04 04:27:44;;;;;;;1.85;1.20;;;10.10;99.90;;;;;;6082501;23;20750;-75
2022/11/04 04:30:14;;;;;;;2.78;1.30;;;10.10;99.90;;;;;;6072055;23;20601;-75
2022/11/04 04:32:45;;;;;;;3.45;1.10;;;10.10;99.90;;;;;;6089935;23;20222;-75
2022/11/04 04:46:27;;;;;;;2.15;1.00;;;10.00;99.90;;;;;;6086390;23;20653;-75
2022/11/04 04:48:54;;;;;;;1.60;1.02;;;9.90;99.90;;;;;;6060780;23;20201;-75
2022/11/04 04:51:23;;;;;;;3.58;1.25;;;9.90;99.90;;;;;;6072098;23;20611;-75
2022/11/04 04:53:50;;;;;;;3.05;1.60;;;9.90;99.90;;;;;;6089297;23;20267;-75
2022/11/04 04:56:17;;;;;;;1.17;1.08;;;9.80;99.90;;;;;;6086237;23;20224;-74
2022/11/04 04:58:45;;;;;;;1.13;0.90;;;9.80;99.90;;;;;;6065230;23;20753;-74
2022/11/04 05:01:12;;;;;;;2.65;1.10;;;9.70;99.90;;;;;;6076509;23;20700;-75
2022/11/04 05:03:40;;;;;;;1.58;1.25;;;9.70;99.90;;;;;;6091671;23;20199;-75
2022/11/04 05:06:07;;;;;;;1.02;0.90;;;9.70;99.90;;;;;;6076038;23;20746;-76
2022/11/04 05:08:36;;;;;;;1.90;1.00;;;9.70;99.90;;;;;;6078951;23;20553;-74
2022/11/04 05:11:03;;;;;;;1.50;1.10;;;9.60;99.90;;;;;;6085413;23;20265;-75
2022/11/04 05:13:30;;;;;;;2.00;1.48;;;9.60;99.90;;;;;;6088442;23;20203;-75
2022/11/04 05:15:57;;;;;;;1.70;1.00;;;9.60;99.90;;;;;;6087007;23;20198;-75
2022/11/04 05:18:24;;;;;;;1.48;1.15;;;9.60;99.90;;;;;;6089443;23;20222;-75
2022/11/04 05:20:51;;;;;;;2.08;1.17;;;9.60;99.90;;;;;;6089364;23;20222;-75
2022/11/04 05:23:19;;;;;;;1.77;1.20;;;9.60;99.90;;;;;;6075905;23;20591;-75
2022/11/04 05:25:47;;;;;;;1.63;1.10;;;9.60;99.90;;;;;;6072275;23;20227;-75
2022/11/04 05:28:14;;;;;;;2.85;1.00;;;9.60;99.90;;;;;;6089221;23;20270;-75
2022/11/04 05:30:43;;;;;;;1.80;0.93;;;9.60;99.90;;;;;;6081520;23;20278;-75
2022/11/04 05:33:10;;;;;;;2.25;0.90;;;9.60;99.90;;;;;;6089734;23;20231;-75
2022/11/04 05:35:37;;;;;;;2.35;1.25;;;9.60;99.90;;;;;;6083373;23;20681;-75
2022/11/04 05:38:04;;;;;;;1.27;1.00;;;9.60;99.90;;;;;;6089686;23;20278;-75
2022/11/04 05:40:31;;;;;;;1.40;1.20;;;9.60;99.90;;;;;;6088538;23;20226;-75
2022/11/04 05:43:00;;;;;;;1.85;1.50;;;9.50;99.90;;;;;;6061464;23;20200;-74
2022/11/04 05:45:29;;;;;;;2.55;1.42;;;9.40;99.90;;;;;;6085960;23;20337;-74
2022/11/04 05:48:00;;;;;;;2.60;1.70;;;9.30;99.90;;;;;;6090150;23;20221;-74
2022/11/04 05:50:27;;;;;;;1.40;1.10;;;9.30;99.90;;;;;;6082246;23;20278;-74
2022/11/04 05:52:57;;;;;;;2.08;1.20;;;9.20;99.90;;;;;;6085970;23;20199;-74
2022/11/04 05:55:24;;;;;;;2.58;1.30;;;9.20;99.90;;;;;;6085319;23;20201;-74
2022/11/04 05:57:52;;;;;;;1.73;1.10;;;9.20;99.90;;;;;;6087670;23;20261;-74
2022/11/04 06:00:22;;;;;;;1.83;1.10;;;9.10;99.90;;;;;;6083286;23;20223;-74
2022/11/04 06:02:49;;;;;;;1.65;1.23;;;9.10;99.90;;;;;;6087818;23;20194;-74
2022/11/04 06:05:17;;;;;;;1.25;1.00;;;9.00;99.90;;;;;;6080784;23;20195;-74
2022/11/04 06:07:44;;;;;;;2.53;1.30;;;9.00;99.90;;;;;;6066879;23;20198;-74
2022/11/04 06:10:11;;;;;;;1.38;1.08;;;9.00;99.90;;;;;;6068182;23;20199;-74
2022/11/04 06:12:39;;;;;;;1.23;1.00;;;9.00;99.90;;;;;;6081375;23;20198;-74
2022/11/04 06:15:08;;;;;;;1.67;1.20;;;9.00;99.90;;;;;;6090415;23;20273;-75
2022/11/04 06:17:37;;;;;;;2.50;1.20;;;9.00;99.90;;;;;;6062186;23;20205;-74
2022/11/04 06:20:06;;;;;;;5.00;1.35;;;9.10;99.90;;;;;;6078617;23;20201;-74
2022/11/04 06:22:33;;;;;;;2.22;1.30;;;9.00;99.90;;;;;;6088696;23;20259;-74
2022/11/04 06:25:01;;;;;;;1.20;1.00;;;9.00;99.90;;;;;;6092346;23;20270;-75
2022/11/04 06:27:30;;;;;;;1.55;1.30;;;9.00;99.90;;;;;;6075872;23;20223;-74
2022/11/04 06:29:57;;;;;;;1.98;1.20;;;9.00;99.90;;;;;;6074572;23;20262;-75
2022/11/04 06:32:24;;;;;;;1.40;1.30;;;9.00;99.90;;;;;;6090482;23;20228;-75
2022/11/04 06:34:53;;;;;;;1.50;1.33;;;8.90;99.90;;;;;;6071732;23;20226;-74
2022/11/04 06:37:20;;;;;;;2.10;1.52;;;8.90;99.90;;;;;;6089282;23;20543;-75
2022/11/04 06:39:47;;;;;;;2.60;1.63;;;8.90;99.90;;;;;;6088481;23;20261;-75
2022/11/04 06:42:15;;;;;;;2.97;1.55;;;8.90;99.90;;;;;;6090781;23;20296;-75
2022/11/04 06:44:42;;;;;;;1.90;1.50;;;8.90;99.90;;;;;;6088359;23;20596;-75
2022/11/04 06:47:10;;;;;;;2.25;1.60;;;8.90;99.90;;;;;;6086202;23;20273;-75
2022/11/04 06:49:37;;;;;;;1.80;1.45;;;8.90;99.90;;;;;;6085062;23;20213;-74
2022/11/04 06:52:06;;;;;;;3.08;1.50;;;8.90;99.90;;;;;;6088840;23;20237;-75
2022/11/04 06:54:33;;;;;;;1.95;1.38;;;8.90;99.90;;;;;;6083353;23;20200;-75
2022/11/04 06:57:01;;;;;;;3.40;1.90;;;8.90;99.90;;;;;;6089722;23;20224;-74
2022/11/04 06:59:29;;;;;;;2.35;1.75;;;9.00;99.90;;;;;;6078780;23;20191;-74
2022/11/04 07:01:56;;;;;;;2.28;2.08;;;8.90;99.90;;;;;;6079931;23;20241;-74
2022/11/04 07:04:23;;;;;;;2.10;1.80;;;8.80;99.90;;;;;;6087358;23;20590;-74
2022/11/04 07:06:50;;;;;;;3.78;1.90;;;8.80;99.90;;;;;;6090631;23;20198;-73
2022/11/04 07:09:19;;;;;;;2.38;2.10;;;8.80;99.90;;;;;;6086815;23;20190;-73
2022/11/04 07:11:47;;;;;;;2.97;1.90;;;8.80;99.90;;;;;;6087387;23;20275;-74
2022/11/04 07:14:14;;;;;;;3.25;2.13;;;8.80;99.90;;;;;;6085588;23;20197;-74
2022/11/04 07:16:42;;;;;;;4.80;2.30;;;8.90;99.90;;;;;;6076379;23;20195;-73
2022/11/04 07:19:09;;;;;;;2.30;2.10;;;8.90;99.90;;;;;;6094943;23;20187;-73
2022/11/04 07:21:36;;;;;;;2.03;1.80;;;8.90;99.90;;;;;;6074121;23;20232;-75
2022/11/04 07:24:03;;;;;;;4.15;2.25;;;9.00;99.90;;;;;;6078882;23;20710;-75
2022/11/04 07:26:32;;;;;;;2.08;1.80;;;9.00;99.90;;;;;;6072603;23;20216;-73
2022/11/04 07:28:59;;;;;;;2.20;1.75;;;9.00;99.90;;;;;;6072533;23;20191;-74
2022/11/04 07:31:27;;;;;;;3.28;2.10;;;9.00;99.90;;;;;;6074341;23;20206;-75
2022/11/04 07:33:54;;;;;;;4.00;2.35;;;9.00;99.90;;;;;;6087484;23;20255;-75
2022/11/04 07:36:22;;;;;;;2.53;2.22;;;9.00;99.90;;;;;;6071351;23;20262;-76
2022/11/04 07:38:49;;;;;;;2.85;2.13;;;9.00;99.90;;;;;;6088810;23;20191;-76
2022/11/04 07:41:19;;;;;;;3.50;2.40;;;9.10;99.90;;;;;;6069288;23;20339;-74
2022/11/04 07:43:52;;;;;;;3.90;2.65;;;9.10;99.90;;;;;;6088881;23;20803;-75
2022/11/04 07:46:20;;;;;;;3.97;2.35;;;9.10;99.90;;;;;;6080507;23;20188;-75
2022/11/04 07:48:48;;;;;;;3.75;2.97;;;9.10;99.90;;;;;;6075039;23;20257;-75
2022/11/04 07:51:17;;;;;;;3.00;2.70;;;9.10;99.90;;;;;;6070025;23;20793;-75
2022/11/04 07:53:45;;;;;;;3.00;2.70;;;9.10;99.90;;;;;;6081014;23;20222;-75
2022/11/04 07:56:13;;;;;;;4.60;2.97;;;9.10;99.90;;;;;;6088958;23;20198;-74
2022/11/04 07:58:41;;;;;;;2.58;2.38;;;9.20;99.90;;;;;;6080446;23;20188;-74
2022/11/04 08:01:13;;;;;;;3.30;2.60;;;9.20;99.90;;;;;;6073465;23;20720;-75
2022/11/04 08:03:40;;;;;;;3.38;3.00;;;9.20;99.90;;;;;;6079801;23;20191;-75
2022/11/04 08:06:10;;;;;;;4.30;3.65;;;9.20;99.90;;;;;;6081139;23;20275;-75
2022/11/04 08:08:39;;;;;;;2.38;2.17;;;9.20;99.90;;;;;;6084093;23;20225;-76
2022/11/04 08:11:08;;;;;;;3.97;2.55;;;9.30;99.90;;;;;;6084686;23;20184;-76
2022/11/04 08:13:37;;;;;;;2.85;2.50;;;9.30;99.90;;;;;;6086099;23;20194;-75
2022/11/04 08:16:08;;;;;;;2.88;2.40;;;9.30;99.90;;;;;;6085679;23;20263;-76
2022/11/04 08:18:38;;;;;;;3.42;2.90;;;9.40;99.90;;;;;;6092363;23;20210;-77
2022/11/04 08:21:06;;;;;;;3.10;2.78;;;9.60;99.90;;;;;;6081288;23;20273;-73
2022/11/04 08:23:34;;;;;;;4.13;2.30;;;9.70;99.90;;;;;;6090012;23;20195;-72
2022/11/04 08:26:02;;;;;;;2.95;2.28;;;9.80;99.90;;;;;;6086233;23;20645;-72
2022/11/04 08:28:29;;;;;;;6.18;2.67;;;9.80;99.90;;;;;;6085100;23;20192;-72
2022/11/04 08:30:58;;;;;;;4.63;2.50;;;9.80;99.90;;;;;;6078701;23;20246;-72
2022/11/04 08:33:27;;;;;;;3.03;1.85;;;9.90;99.90;;;;;;6079408;23;20215;-77
2022/11/04 08:35:59;;;;;;;2.70;2.15;;;10.00;99.90;;;;;;6088742;23;20192;-76
2022/11/04 08:38:27;;;;;;;2.10;1.90;;;10.10;99.90;;;;;;6077239;23;20704;-76
2022/11/04 08:40:57;;;;;;;2.00;1.80;;;10.20;99.90;;;;;;6076362;23;20234;-76
2022/11/04 08:43:26;;;;;;;3.95;2.60;;;10.20;99.90;;;;;;6081413;23;20258;-77
2022/11/04 08:45:55;;;;;;;3.10;2.33;;;10.30;99.90;;;;;;6076031;23;20193;-72
2022/11/04 08:48:22;;;;;;;3.15;2.15;;;10.30;99.90;;;;;;6074034;23;20211;-75
2022/11/04 08:50:52;;;;;;;6.15;2.22;;;10.30;99.90;;;;;;6074405;23;20255;-75
2022/11/04 08:53:21;;;;;;;2.50;1.92;;;10.30;99.90;;;;;;6075399;23;20572;-75
2022/11/04 08:55:49;;;;;;;2.47;2.10;;;10.40;99.90;;;;;;6068035;23;20188;-75
2022/11/04 08:58:17;;;;;;;3.10;2.00;;;10.60;99.90;;;;;;6074456;23;20199;-75
2022/11/04 09:00:45;;;;;;;3.45;1.90;;;10.70;99.90;;;;;;6056392;23;20737;-75
2022/11/04 09:03:12;;;;;;;3.78;2.30;;;10.90;99.90;;;;;;6083748;23;20570;-75
2022/11/04 09:05:43;;;;;;;4.82;2.55;;;11.00;99.90;;;;;;6087753;23;20238;-75
2022/11/04 09:08:12;;;;;;;3.20;1.92;;;11.00;99.90;;;;;;6085055;23;20192;-75
2022/11/04 09:10:43;;;;;;;2.35;2.10;;;11.10;99.90;;;;;;6087138;23;20267;-75
2022/11/04 09:13:10;;;;;;;5.70;2.45;;;11.10;99.90;;;;;;6074511;23;20574;-75
2022/11/04 09:15:38;;;;;;;2.20;2.00;;;11.20;99.90;;;;;;6082711;23;20195;-74
2022/11/04 09:18:06;;;;;;;2.90;1.88;;;11.00;99.90;;;;;;6079843;23;21218;-74
2022/11/04 09:20:37;;;;;;;2.65;1.90;;;11.00;99.90;;;;;;6071863;23;20195;-75
2022/11/04 09:23:05;;;;;;;2.50;2.08;;;10.90;99.90;;;;;;6082352;23;20239;-75
2022/11/04 09:25:32;;;;;;;4.40;2.83;;;10.90;99.90;;;;;;6087661;23;20192;-75
2022/11/04 09:28:03;;;;;;;3.05;2.17;;;10.90;99.90;;;;;;6078598;23;20692;-75
2022/11/04 09:30:33;;;;;;;4.07;2.30;;;10.90;99.90;;;;;;6072357;23;20196;-76
2022/11/04 09:33:00;;;;;;;2.25;2.03;;;10.90;99.90;;;;;;6077829;23;20236;-75
2022/11/04 09:35:29;;;;;;;2.30;2.10;;;11.00;99.90;;;;;;6085761;23;20192;-75
2022/11/04 09:38:00;;;;;;;5.15;2.78;;;11.10;99.90;;;;;;6083401;23;20188;-74
2022/11/04 09:40:28;;;;;;;3.40;1.83;;;11.10;99.90;;;;;;6079044;23;20226;-76
2022/11/04 09:43:10;;;;;;;2.35;1.67;;;11.10;99.90;;;;;;6079881;23;20204;-75
2022/11/04 09:45:42;;;;;;;2.80;1.30;;;11.10;99.90;;;;;;6089451;23;20192;-75
2022/11/04 09:48:13;;;;;;;3.00;1.77;;;11.20;99.90;;;;;;6085781;23;20546;-75
2022/11/04 09:50:46;;;;;;;1.88;1.30;;;11.20;99.90;;;;;;6077474;23;20189;-75
2022/11/04 09:53:17;;;;;;;4.40;1.60;;;11.30;99.90;;;;;;6076298;23;20195;-76
2022/11/04 09:55:52;;;;;;;2.00;1.20;;;11.40;99.90;;;;;;6071533;23;20271;-76
2022/11/04 09:58:21;;;;;;;2.40;1.20;;;11.40;99.90;;;;;;6086555;23;20215;-75
2022/11/04 10:00:57;;;;;;;2.88;1.40;;;11.40;99.90;;;;;;6088137;23;20191;-75
2022/11/04 10:03:45;;;;;;;3.83;1.50;;;11.40;99.90;;;;;;6033114;23;20216;-76
2022/11/04 10:06:29;;;;;;;4.43;1.42;;;11.60;99.90;;;;;;6079019;23;20292;-75
2022/11/04 10:09:21;;;;;;;3.63;1.27;;;11.70;99.90;;;;;;6084549;23;20267;-76
2022/11/04 10:12:00;;;;;;;3.10;1.38;;;11.90;99.90;;;;;;6067191;23;20259;-75
2022/11/04 10:15:17;;;;;;;5.00;1.40;;;12.00;99.90;;;;;;6078021;23;20189;-75
2022/11/04 10:17:58;;;;;;;5.33;1.50;;;12.20;99.90;;;;;;6024543;23;20439;-76
2022/11/04 10:20:37;;;;;;;3.03;1.20;;;12.40;99.90;;;;;;6002408;23;20496;-75
2022/11/04 10:23:14;;;;;;;3.43;1.10;;;12.80;99.90;;;;;;6043094;23;20461;-76
2022/11/04 10:25:48;;;;;;;2.80;1.17;;;13.20;99.90;;;;;;6075301;23;20443;-77
2022/11/04 10:28:18;;;;;;;1.80;1.23;;;13.40;99.90;;;;;;6064309;23;20818;-75
2022/11/04 10:30:50;;;;;;;3.10;1.27;;;13.60;99.90;;;;;;6071522;23;20442;-74
2022/11/04 10:33:29;;;;;;;1.97;1.10;;;13.90;99.90;;;;;;6082477;23;20451;-75
2022/11/04 10:36:00;;;;;;;2.07;1.60;;;14.10;99.90;;;;;;6074155;23;20569;-74
2022/11/04 10:38:36;;;;;;;2.10;1.27;;;14.30;99.90;;;;;;6084115;23;20435;-75
2022/11/04 10:41:13;;;;;;;2.87;1.20;;;14.70;99.90;;;;;;6091705;23;20461;-74
2022/11/04 10:43:41;;;;;;;2.70;1.30;;;15.00;99.90;;;;;;6071644;23;20549;-74
2022/11/04 10:46:26;;;;;;;2.30;1.10;;;14.80;99.90;;;;;;6070650;23;20496;-74
2022/11/04 10:49:03;;;;;;;2.20;1.20;;;14.70;99.90;;;;;;6081483;23;20811;-73
2022/11/04 10:51:31;;;;;;;4.50;1.40;;;14.30;99.90;;;;;;6083809;23;20442;-75
2022/11/04 10:54:01;;;;;;;6.40;1.50;;;14.00;99.90;;;;;;6088691;23;20509;-76
2022/11/04 10:56:38;;;;;;;2.50;1.20;;;13.70;99.90;;;;;;6084611;23;20821;-77
2022/11/04 10:59:19;;;;;;;3.30;1.30;;;13.70;99.90;;;;;;6081119;23;20449;-75
2022/11/04 11:01:51;;;;;;;2.20;1.10;;;13.80;99.90;;;;;;6089059;23;20445;-75
2022/11/04 11:04:28;;;;;;;2.53;1.10;;;13.80;99.90;;;;;;6076594;23;20811;-75
2022/11/04 11:06:58;;;;;;;2.50;1.10;;;13.70;99.90;;;;;;6090679;23;20428;-76
2022/11/04 11:09:28;;;;;;;3.17;1.10;;;13.60;99.90;;;;;;6079180;23;20456;-72
2022/11/04 11:11:59;;;;;;;3.23;1.40;;;13.60;99.90;;;;;;6082668;23;20480;-73
2022/11/04 11:14:36;;;;;;;2.37;1.00;;;13.20;99.90;;;;;;6086817;23;20789;-75
2022/11/04 11:17:20;;;;;;;5.27;1.30;;;13.00;99.90;;;;;;6073582;23;20438;-74
2022/11/04 11:19:53;;;;;;;3.30;1.52;;;13.00;99.90;;;;;;6074781;23;21011;-73
2022/11/04 11:22:35;;;;;;;3.20;1.25;;;12.50;99.90;;;;;;6064698;23;20205;-76
2022/11/04 11:25:22;;;;;;;2.95;1.00;;;12.40;99.90;;;;;;6069209;23;20238;-76
2022/11/04 11:27:51;;;;;;;3.17;1.40;;;12.30;99.90;;;;;;6080038;23;20188;-76
2022/11/04 11:30:24;;;;;;;2.20;1.10;;;12.20;99.90;;;;;;6090488;23;20224;-76
2022/11/04 11:33:18;;;;;;;3.20;1.67;;;12.30;99.90;;;;;;6076357;23;20268;-76
2022/11/04 11:35:51;;;;;;;2.67;1.52;;;12.40;99.90;;;;;;6079189;23;20200;-76
2022/11/04 11:38:21;;;;;;;2.13;1.17;;;12.50;99.90;;;;;;6090780;23;20195;-76
2022/11/04 11:40:51;;;;;;;2.70;1.37;;;12.50;99.90;;;;;;6090334;23;20188;-75
2022/11/04 11:43:25;;;;;;;3.38;1.10;;;12.60;99.90;;;;;;6084269;23;20470;-76
2022/11/04 11:45:56;;;;;;;2.50;1.20;;;12.60;99.90;;;;;;6088055;23;20306;-76
2022/11/04 11:48:38;;;;;;;4.13;1.15;;;12.70;99.90;;;;;;6080497;23;20442;-76
2022/11/04 11:51:06;;;;;;;3.03;1.23;;;12.90;99.90;;;;;;6087971;23;20275;-76
2022/11/04 11:53:37;;;;;;;2.30;1.20;;;13.20;99.90;;;;;;6080027;23;20535;-76
2022/11/04 11:56:24;;;;;;;5.33;1.10;;;13.30;99.90;;;;;;6091246;23;20507;-75
2022/11/04 11:58:57;;;;;;;4.10;1.40;;;13.50;99.90;;;;;;6096160;23;20444;-75
2022/11/04 12:01:30;;;;;;;3.13;1.43;;;13.60;99.90;;;;;;6071228;23;20451;-75
2022/11/04 12:03:59;;;;;;;3.33;1.40;;;13.60;99.90;;;;;;6090831;23;20972;-75
2022/11/04 12:06:42;;;;;;;2.30;1.27;;;13.60;99.90;;;;;;6073224;23;20435;-76
2022/11/04 12:09:25;;;;;;;2.73;1.40;;;13.60;99.90;;;;;;6086305;23;20431;-76
2022/11/04 12:12:06;;;;;;;2.97;1.17;;;13.50;99.90;;;;;;6075288;23;20934;-76
2022/11/04 12:14:44;;;;;;;2.77;1.20;;;13.40;99.90;;;;;;6076308;23;20463;-76
2022/11/04 12:17:27;;;;;;;3.30;1.13;;;13.50;99.90;;;;;;6076153;23;21168;-75
2022/11/04 12:20:08;;;;;;;4.83;1.47;;;13.60;99.90;;;;;;6080863;23;20436;-76
2022/11/04 12:22:47;;;;;;;3.30;1.30;;;13.70;99.90;;;;;;6080460;23;20458;-76
2022/11/04 12:25:22;;;;;;;3.13;0.97;;;13.70;99.90;;;;;;6089517;23;20456;-76
2022/11/04 12:27:58;;;;;;;2.40;1.23;;;14.00;99.90;;;;;;6063579;23;20972;-76
2022/11/04 12:30:26;;;;;;;4.00;1.50;;;13.80;99.90;;;;;;6091665;23;20838;-76
2022/11/04 12:33:17;;;;;;;2.67;1.30;;;13.80;99.90;;;;;;6090605;23;20428;-76
2022/11/04 12:36:09;;;;;;;3.63;1.33;;;13.80;99.90;;;;;;6069762;23;20447;-75
2022/11/04 12:39:01;;;;;;;2.50;1.30;;;13.70;99.90;;;;;;6083966;23;20434;-75
2022/11/04 12:41:37;;;;;;;3.00;1.10;;;13.50;99.90;;;;;;6064867;23;20525;-74
2022/11/04 12:44:15;;;;;;;1.63;1.30;;;13.30;99.90;;;;;;6086719;23;20534;-76
2022/11/04 12:46:53;;;;;;;2.97;1.05;;;13.30;99.90;;;;;;6091820;23;20193;-75
2022/11/04 12:49:53;;;;;;;5.07;1.30;;;13.30;99.90;;;;;;6090754;23;20207;-76
2022/11/04 12:52:39;;;;;;;2.85;0.98;;;13.30;99.90;;;;;;6089794;23;20446;-75
2022/11/04 12:55:22;;;;;;;2.90;1.10;;;13.20;99.90;;;;;;6092466;23;20263;-75
2022/11/04 12:57:57;;;;;;;3.13;1.13;;;13.20;99.90;;;;;;6091744;23;20419;-75
2022/11/04 13:00:27;;;;;;;4.47;1.40;;;13.20;99.90;;;;;;6091194;23;20525;-74
2022/11/04 13:03:00;;;;;;;2.20;1.40;;;13.20;99.90;;;;;;6092855;23;20465;-74
2022/11/04 13:05:39;;;;;;;2.37;1.30;;;13.30;99.90;;;;;;6091676;23;20434;-74
2022/11/04 13:08:18;;;;;;;1.63;1.03;;;13.40;99.90;;;;;;6093248;23;20427;-73
2022/11/04 13:10:51;;;;;;;3.80;1.13;;;13.50;99.90;;;;;;6093547;23;20420;-73
2022/11/04 13:13:24;;;;;;;3.00;1.30;;;13.50;99.90;;;;;;6093499;23;20503;-74
2022/11/04 13:15:55;;;;;;;2.80;1.10;;;13.50;99.90;;;;;;6093338;23;20425;-74
2022/11/04 13:18:26;;;;;;;2.50;1.47;;;13.50;99.90;;;;;;6093643;23;20430;-74
2022/11/04 13:20:58;;;;;;;6.47;1.67;;;13.40;99.90;;;;;;6093225;23;20426;-74
2022/11/04 13:23:32;;;;;;;4.20;1.10;;;13.30;99.90;;;;;;6093160;23;20494;-74
2022/11/04 13:26:01;;;;;;;2.33;1.30;;;13.20;99.90;;;;;;6090964;23;20440;-74
2022/11/04 13:28:28;;;;;;;3.47;1.27;;;13.30;99.90;;;;;;6092396;23;20461;-74
2022/11/04 13:31:04;;;;;;;2.83;1.27;;;13.00;99.90;;;;;;6092617;23;20422;-74
2022/11/04 13:33:40;;;;;;;2.70;1.10;;;13.00;99.90;;;;;;6092023;23;20454;-74
2022/11/04 13:36:18;;;;;;;3.70;1.03;;;13.00;99.90;;;;;;6092481;23;20462;-74
2022/11/04 13:38:51;;;;;;;3.37;1.30;;;13.00;99.90;;;;;;6092376;23;20826;-74
2022/11/04 13:41:39;;;;;;;3.93;1.43;;;13.10;99.90;;;;;;6092638;23;20419;-74
2022/11/04 13:44:33;;;;;;;1.50;1.30;;;13.00;99.90;;;;;;6092302;23;20458;-74